createdAt,value
2022-09-27T00:04:21.494Z,0
2022-09-27T00:09:44.371Z,0
2022-09-27T00:15:06.892Z,0
2022-09-27T00:20:29.364Z,0
2022-09-27T00:25:51.827Z,0
2022-09-27T00:31:14.654Z,0
2022-09-27T00:36:37.602Z,0
2022-09-27T00:42:00.421Z,0
2022-09-27T00:47:22.963Z,0
2022-09-27T00:52:48.195Z,0
2022-09-27T00:58:10.811Z,0
2022-09-27T01:03:33.716Z,0
2022-09-27T01:08:56.096Z,0
2022-09-27T01:14:18.609Z,0
2022-09-27T01:25:06.626Z,0
2022-09-27T01:30:29.017Z,0
2022-09-27T01:35:54.511Z,0
2022-09-27T01:41:26.433Z,0
2022-09-27T01:46:52.696Z,0
2022-09-27T01:52:24.729Z,0
2022-09-27T01:57:47.462Z,0
2022-09-27T02:03:09.687Z,0
2022-09-27T02:08:34.999Z,0
2022-09-27T02:13:57.831Z,0
2022-09-27T02:19:29.424Z,0
2022-09-27T02:24:51.618Z,0
2022-09-27T02:30:14.126Z,0
2022-09-27T02:35:44.385Z,0
2022-09-27T02:41:06.869Z,0
2022-09-27T02:46:29.510Z,0
2022-09-27T02:52:01.088Z,0
2022-09-27T02:57:23.733Z,0
2022-09-27T03:02:47.849Z,0
2022-09-27T03:08:10.484Z,0
2022-09-27T03:19:34.582Z,0
2022-09-27T03:24:57.223Z,0
2022-09-27T03:30:19.635Z,0
2022-09-27T03:35:41.971Z,0
2022-09-27T03:41:06.860Z,0
2022-09-27T03:46:31.308Z,0
2022-09-27T03:51:54.131Z,0
2022-09-27T03:57:16.778Z,0
2022-09-27T04:02:39.626Z,0
2022-09-27T04:08:02.551Z,0
2022-09-27T04:13:25.249Z,0
2022-09-27T04:18:47.822Z,0
2022-09-27T04:24:31.420Z,0
2022-09-27T04:29:53.818Z,0
2022-09-27T04:35:16.297Z,0
2022-09-27T04:40:39.251Z,0
2022-09-27T04:46:04.582Z,0
2022-09-27T04:51:27.568Z,0
2022-09-27T04:56:50.190Z,0
2022-09-27T05:07:35.299Z,0
2022-09-27T05:13:00.705Z,0
2022-09-27T05:18:23.824Z,0
2022-09-27T05:23:48.363Z,4
2022-09-27T05:29:14.525Z,12
2022-09-27T05:34:36.885Z,21.1
2022-09-27T05:40:00.030Z,57.4
2022-09-27T05:45:45.915Z,103.6
2022-09-27T05:51:08.740Z,78.4
2022-09-27T05:56:31.426Z,73.7
2022-09-27T06:01:54.067Z,67.5
2022-09-27T06:07:16.900Z,64.2
2022-09-27T06:12:39.259Z,59.6
2022-09-27T06:18:01.815Z,58.5
2022-09-27T06:23:27.296Z,54.9
2022-09-27T06:28:49.572Z,88.8
2022-09-27T06:34:14.956Z,128.9
2022-09-27T06:39:40.483Z,189.6
2022-09-27T06:45:03.651Z,316.5
2022-09-27T06:50:28.660Z,224.2
2022-09-27T07:01:14.529Z,349.5
2022-09-27T07:06:37.348Z,284.8
2022-09-27T07:11:59.577Z,216.1
2022-09-27T07:17:21.897Z,200.7
2022-09-27T07:22:48.822Z,244.6
2022-09-27T07:28:21.950Z,440
2022-09-27T07:33:55.455Z,486.1
2022-09-27T07:39:20.393Z,431.2
2022-09-27T07:44:44.864Z,411.8
2022-09-27T07:50:13.516Z,479.3
2022-09-27T07:55:38.251Z,611.7
2022-09-27T08:01:01.393Z,560.9
2022-09-27T08:06:23.414Z,376.9
2022-09-27T08:11:45.546Z,451
2022-09-27T08:17:09.171Z,263.6
2022-09-27T08:22:34.782Z,479.9
2022-09-27T08:27:57.632Z,469.9
2022-09-27T08:38:59.921Z,467
2022-09-27T08:49:48.231Z,468.9
2022-09-27T08:55:12.066Z,611.9
2022-09-27T09:00:43.884Z,559.5
2022-09-27T09:06:10.712Z,819.2
2022-09-27T09:11:45.887Z,936.1
2022-09-27T09:17:10.483Z,1111.3
2022-09-27T09:22:33.740Z,733.4
2022-09-27T09:28:02.842Z,633.3
2022-09-27T09:33:24.776Z,913.1
2022-09-27T09:38:48.677Z,635.1
2022-09-27T09:44:10.381Z,591
2022-09-27T09:49:32.586Z,443.6
2022-09-27T09:54:57.467Z,287.6
2022-09-27T10:00:19.857Z,649.3
2022-09-27T10:05:42.886Z,515.1
2022-09-27T10:11:04.878Z,254.4
2022-09-27T10:16:27.163Z,378.2
2022-09-27T10:21:50.035Z,533.3
2022-09-27T10:27:13.643Z,542.4
2022-09-27T10:43:37.096Z,482.5
2022-09-27T10:49:00.487Z,670.9
2022-09-27T10:54:23.877Z,897.6
2022-09-27T10:59:46.242Z,543.7
2022-09-27T11:05:15.176Z,355.5
2022-09-27T11:10:38.710Z,91
2022-09-27T11:16:00.905Z,92.6
2022-09-27T11:21:23.257Z,104.6
2022-09-27T11:26:48.918Z,238.3
2022-09-27T11:32:49.979Z,664.7
2022-09-27T11:38:51.438Z,616.8
2022-09-27T11:44:16.691Z,491.7
2022-09-27T11:49:48.294Z,442.1
2022-09-27T11:55:11.282Z,556.1
2022-09-27T12:00:34.246Z,554.6
2022-09-27T12:06:01.446Z,564.4
2022-09-27T12:11:30.478Z,994.4
2022-09-27T12:16:53.794Z,805
2022-09-27T12:22:16.042Z,360.4
2022-09-27T12:27:40.729Z,808.3
2022-09-27T12:33:02.447Z,295.5
2022-09-27T12:38:24.783Z,594.7
2022-09-27T12:43:50.255Z,649.3
2022-09-27T12:54:35.900Z,796.3
2022-09-27T12:59:58.247Z,625.4
2022-09-27T13:05:23.270Z,677
2022-09-27T13:10:46.516Z,590.6
2022-09-27T13:16:08.734Z,619
2022-09-27T13:21:31.624Z,631.6
2022-09-27T13:26:54.475Z,1019.4
2022-09-27T13:32:40.263Z,1805.8
2022-09-27T13:38:03.411Z,945.3
2022-09-27T13:43:27.689Z,533.2
2022-09-27T13:48:49.210Z,342.3
2022-09-27T13:54:13.609Z,326.7
2022-09-27T13:59:35.936Z,271.4
2022-09-27T14:05:19.335Z,186.6
2022-09-27T14:10:41.519Z,76
2022-09-27T14:16:06.675Z,109.8
2022-09-27T14:21:31.578Z,116.3
2022-09-27T14:26:53.852Z,144.7
2022-09-27T14:32:16.830Z,304.4
2022-09-27T14:37:39.688Z,554.4
2022-09-27T14:48:31.615Z,342.5
2022-09-27T14:53:53.763Z,344.4
2022-09-27T14:59:17.127Z,637.8
2022-09-27T15:04:43.268Z,536.2
2022-09-27T15:10:09.065Z,320.7
2022-09-27T15:15:31.054Z,238.1
2022-09-27T15:20:53.542Z,181.9
2022-09-27T15:26:15.776Z,171.3
2022-09-27T15:31:38.309Z,180.1
2022-09-27T15:37:01.096Z,187.7
2022-09-27T15:42:23.764Z,210.3
2022-09-27T15:47:47.921Z,124.5
2022-09-27T15:53:13.384Z,93
2022-09-27T15:58:35.716Z,160.6
2022-09-27T16:03:58.291Z,168.2
2022-09-27T16:09:20.976Z,153.5
2022-09-27T16:14:43.601Z,111.1
2022-09-27T16:20:05.729Z,85.7
2022-09-27T16:25:27.968Z,80.9
2022-09-27T16:30:50.352Z,48.2
2022-09-27T16:41:37.578Z,51.5
2022-09-27T16:47:00.437Z,41.3
2022-09-27T16:52:22.980Z,32
2022-09-27T16:57:45.491Z,19
2022-09-27T17:03:07.920Z,18.1
2022-09-27T17:08:30.210Z,12
2022-09-27T17:13:52.539Z,6
2022-09-27T17:19:17.371Z,2
2022-09-27T17:24:42.684Z,0
2022-09-27T17:30:05.576Z,0
2022-09-27T17:35:27.987Z,0
2022-09-27T17:40:50.620Z,0
2022-09-27T17:46:25.726Z,0
2022-09-27T17:51:49.144Z,0
2022-09-27T17:57:11.704Z,0
2022-09-27T18:02:34.192Z,0
2022-09-27T18:08:05.992Z,0
2022-09-27T18:13:31.645Z,0
2022-09-27T18:18:54.197Z,0
2022-09-27T18:24:17.096Z,0
2022-09-27T18:35:03.144Z,0
2022-09-27T18:40:56.764Z,0
2022-09-27T18:46:38.451Z,0
2022-09-27T18:52:01.461Z,0
2022-09-27T18:57:23.854Z,0
2022-09-27T19:02:48.878Z,0
2022-09-27T19:08:11.605Z,0
2022-09-27T19:13:51.355Z,0
2022-09-27T19:19:14.659Z,0
2022-09-27T19:24:37.293Z,0
2022-09-27T19:29:59.866Z,0
2022-09-27T19:35:25.696Z,0
2022-09-27T19:40:51.181Z,0
2022-09-27T19:46:13.716Z,0
2022-09-27T19:51:36.113Z,0
2022-09-27T19:56:58.441Z,0
2022-09-27T20:02:24.082Z,0
2022-09-27T20:07:49.020Z,0
2022-09-27T20:13:11.779Z,0
2022-09-27T20:18:39.850Z,0
2022-09-27T20:29:25.391Z,0
2022-09-27T20:34:49.232Z,0
2022-09-27T20:40:11.908Z,0
2022-09-27T20:45:34.386Z,0
2022-09-27T20:50:58.616Z,0
2022-09-27T20:56:27.158Z,0
2022-09-27T21:07:18.512Z,0
2022-09-27T21:12:40.938Z,0
2022-09-27T21:18:03.548Z,0
2022-09-27T21:23:27.058Z,0
2022-09-27T21:28:52.570Z,0
2022-09-27T21:34:22.255Z,0
2022-09-27T21:39:44.992Z,0
2022-09-27T21:45:09.914Z,0
2022-09-27T21:50:36.117Z,0
2022-09-27T21:55:58.659Z,0
2022-09-27T22:01:23.822Z,0
2022-09-27T22:12:08.629Z,0
2022-09-27T22:17:31.446Z,0
2022-09-27T22:22:53.751Z,0
2022-09-27T22:28:16.202Z,0
2022-09-27T22:33:38.518Z,0
2022-09-27T22:39:13.158Z,0
2022-09-27T22:44:38.896Z,0
2022-09-27T22:50:01.580Z,0
2022-09-27T22:55:23.903Z,0
2022-09-27T23:00:49.039Z,0
2022-09-27T23:06:11.844Z,0
2022-09-27T23:11:34.173Z,0
2022-09-27T23:16:56.533Z,0
2022-09-27T23:22:22.888Z,0
2022-09-27T23:27:45.317Z,0
2022-09-27T23:33:10.219Z,0
2022-09-27T23:38:40.627Z,0
2022-09-27T23:44:03.367Z,0
2022-09-27T23:49:25.780Z,0
